Latest Weather Observations for Minlaton Airport

IDS60801

Issued at 8:01 pm CST Monday 3 August 2015 (issued every 30 minutes, with the page automatically refreshed every 10 minutes)

About weather observations | Map of weather stations | Latest weather observations for SA | Other Formats
Station Details ID: 022031 Name: MINLATON AERO Lat: -34.75 Lon: 137.53 Height: 32.0 m
Data from the previous 72 hours. | See also: Recent months at Minlaton Airport
Date/Time
CST
Temp
°C
App
Temp
°C
Dew
Point
Rel
Hum
%
Delta-T
°C
Wind Press
QNH
hPa
Press
MSL
hPa
Rain
since 9 am
mm
Dir
 
Spd
km/h
Gust
km/h
Spd
kts
Gust
kts
03/08:00pm 5.9 3.0 4.9 93 0.4 S 9 11 5 6 1027.9 1028.0 0.2
03/07:30pm 6.2 3.0 5.0 92 0.5 S 11 13 6 7 1027.8 1027.9 0.2
03/07:00pm 6.5 3.7 5.3 92 0.5 S 9 11 5 6 1027.7 1027.8 0.2
03/06:30pm 7.5 4.5 6.0 90 0.7 S 11 13 6 7 1027.4 1027.5 0.2
03/06:00pm 8.9 6.2 7.4 90 0.7 SSW 11 15 6 8 1027.1 1027.2 0.2
03/05:30pm 9.6 5.2 7.5 87 1.0 SSW 20 26 11 14 1027.0 1027.1 0.2
03/05:00pm 10.5 7.6 8.3 86 1.1 SSW 13 17 7 9 1026.8 1026.9 0.2
03/04:30pm 10.9 7.8 8.7 86 1.1 SW 15 28 8 15 1026.7 1026.8 0.2
03/04:00pm 11.4 8.2 8.6 83 1.4 SSW 15 20 8 11 1026.5 1026.6 0.2
03/03:30pm 11.2 8.0 8.6 84 1.3 SW 15 20 8 11 1026.2 1026.3 0.2
03/03:00pm 9.8 3.2 7.7 87 1.0 SW 32 46 17 25 1026.1 1026.2 0.0
03/02:56pm 11.4 6.5 8.3 81 1.5 SW 24 46 13 25 1025.9 1026.0 0.0
03/02:30pm 12.4 8.6 9.1 80 1.7 SW 19 26 10 14 1025.7 1025.8 0.0
03/02:00pm 10.3 4.7 8.7 90 0.8 SW 28 35 15 19 1026.0 1026.1 0.0
03/01:43pm 12.0 6.1 7.3 73 2.3 SW 28 46 15 25 1025.7 1025.8 0.0
03/01:30pm 13.4 9.1 8.0 70 2.7 SW 20 28 11 15 1025.7 1025.8 0.0
03/01:00pm 11.5 8.4 8.7 83 1.4 SSW 15 20 8 11 1026.1 1026.2 0.0
03/12:30pm 12.3 6.6 8.4 77 1.9 SW 28 41 15 22 1026.2 1026.3 0.0
03/12:00pm 13.3 8.9 7.5 68 2.8 SW 20 28 11 15 1026.2 1026.3 0.0
03/11:30am 12.9 8.2 7.8 71 2.5 SW 22 30 12 16 1026.6 1026.7 0.0
03/11:00am 11.0 6.0 8.2 83 1.4 SW 24 33 13 18 1026.7 1026.8 0.0
03/10:30am 12.8 8.0 8.7 76 2.0 SSW 24 30 13 16 1026.5 1026.6 0.0
03/10:00am 12.1 7.3 8.9 81 1.6 SSW 24 32 13 17 1026.3 1026.4 0.0
03/09:30am 11.4 6.6 8.8 84 1.3 SW 24 33 13 18 1026.0 1026.1 0.0
03/09:00am 10.7 6.7 8.3 85 1.2 SW 19 24 10 13 1025.8 1025.9 0.2
03/08:30am 10.3 5.4 8.6 89 0.8 SW 24 35 13 19 1025.5 1025.6 0.2
03/08:00am 9.8 7.0 8.7 93 0.5 SW 13 17 7 9 1025.1 1025.2 0.2
03/07:30am 9.4 6.2 8.5 94 0.4 SW 15 17 8 9 1024.9 1025.0 0.2
03/07:00am 9.7 4.8 8.6 93 0.5 SW 24 39 13 21 1024.4 1024.5 0.2
03/06:30am 8.0 4.3 6.5 90 0.7 SW 15 19 8 10 1024.2 1024.3 0.2
03/06:00am 9.2 4.7 7.0 86 1.0 SW 20 30 11 16 1023.8 1023.9 0.2
03/05:30am 10.0 5.6 7.6 85 1.1 WSW 20 24 11 13 1023.5 1023.6 0.2
03/05:00am 10.5 6.2 7.7 83 1.3 WSW 20 26 11 14 1023.3 1023.4 0.2
03/04:30am 10.6 6.3 6.9 78 1.7 WSW 19 22 10 12 1023.3 1023.4 0.2
03/04:00am 10.8 5.7 7.5 80 1.6 SW 24 32 13 17 1023.3 1023.4 0.2
03/03:30am 10.7 5.7 8.1 84 1.3 SW 24 32 13 17 1023.5 1023.6 0.2
03/03:00am 10.9 5.7 8.7 86 1.1 WSW 26 35 14 19 1023.3 1023.4 0.2
03/02:30am 10.6 6.3 9.2 91 0.7 WSW 22 28 12 15 1023.2 1023.3 0.2
03/02:00am 10.5 5.8 9.3 92 0.6 WSW 24 30 13 16 1023.2 1023.3 0.2
03/01:42am 11.1 5.7 9.4 89 0.9 WSW 28 48 15 26 1023.2 1023.3 0.0
03/01:30am 10.9 5.7 9.0 88 0.9 WSW 26 35 14 19 1023.1 1023.2 0.0
03/01:00am 11.0 5.9 9.3 89 0.9 WSW 26 33 14 18 1023.0 1023.1 0.0
03/12:30am 11.3 6.1 9.0 86 1.1 W 26 32 14 17 1023.0 1023.1 0.0
03/12:00am 11.1 5.4 8.5 84 1.3 WSW 28 41 15 22 1023.0 1023.1 0.0
 
Date/Time
CST
Temp
°C
App
Temp
°C
Dew
Point
Rel
Hum
%
Delta-T
°C
Wind Press
QNH
hPa
Press
MSL
hPa
Rain
since 9 am
mm
Dir
 
Spd
km/h
Gust
km/h
Spd
kts
Gust
kts
02/11:30pm 11.0 5.9 9.3 89 0.8 WSW 26 32 14 17 1023.0 1023.1 0.0
02/11:00pm 12.1 6.2 9.1 82 1.5 W 30 41 16 22 1023.1 1023.2 0.0
02/10:30pm 11.8 6.6 8.8 82 1.5 W 26 33 14 18 1023.2 1023.3 0.0
02/10:00pm 11.4 6.6 8.8 84 1.3 W 24 33 13 18 1023.2 1023.3 0.0
02/09:30pm 11.4 5.8 8.6 83 1.4 WSW 28 35 15 19 1023.1 1023.2 0.0
02/09:00pm 12.0 6.1 9.2 83 1.4 W 30 39 16 21 1023.0 1023.1 0.0
02/08:30pm 11.2 6.8 8.8 85 1.2 W 22 28 12 15 1022.8 1022.9 0.0
02/08:00pm 11.3 6.6 9.2 87 1.1 W 24 33 13 18 1022.6 1022.7 0.0
02/07:30pm 11.7 7.0 9.4 86 1.2 W 24 32 13 17 1022.5 1022.6 0.0
02/07:00pm 11.8 6.3 9.0 83 1.4 W 28 33 15 18 1022.2 1022.3 0.0
02/06:30pm 11.5 6.8 9.1 85 1.2 WSW 24 30 13 16 1022.0 1022.1 0.0
02/06:00pm 11.8 5.2 8.6 81 1.6 W 33 43 18 23 1021.5 1021.6 0.0
02/05:30pm 11.7 6.2 9.1 84 1.3 W 28 35 15 19 1021.3 1021.4 0.0
02/05:00pm 12.1 5.8 8.9 81 1.6 WSW 32 43 17 23 1021.1 1021.2 0.0
02/04:30pm 12.9 6.5 9.2 78 1.9 W 33 48 18 26 1020.9 1021.0 0.0
02/04:00pm 13.5 6.6 9.0 74 2.3 W 35 43 19 23 1020.7 1020.8 0.0
02/03:30pm 13.9 7.8 9.9 77 2.1 W 32 41 17 22 1020.6 1020.7 0.0
02/03:00pm 13.3 7.1 9.9 80 1.7 W 33 41 18 22 1020.4 1020.5 0.0
02/02:30pm 12.8 5.2 9.1 78 1.9 W 39 54 21 29 1020.3 1020.3 0.0
02/02:23pm 13.6 6.6 8.4 71 2.6 W 35 54 19 29 1020.3 1020.3 0.0
02/02:00pm 14.3 7.4 8.9 70 2.7 W 35 44 19 24 1020.1 1020.1 0.0
02/01:30pm 13.0 6.3 9.6 80 1.7 W 35 43 19 23 1020.3 1020.3 0.0
02/01:00pm 14.0 7.2 9.4 74 2.4 W 35 44 19 24 1020.4 1020.5 0.0
02/12:30pm 13.8 6.1 8.8 72 2.5 WSW 39 50 21 27 1020.6 1020.7 0.0
02/12:00pm 13.5 6.2 8.6 72 2.4 W 37 44 20 24 1020.8 1020.9 0.0
02/11:30am 13.3 8.0 9.9 80 1.7 W 28 35 15 19 1021.0 1021.1 0.0
02/11:00am 11.4 5.7 9.7 89 0.9 W 30 43 16 23 1021.1 1021.2 0.0
02/10:30am 12.4 5.9 9.1 80 1.7 W 33 41 18 22 1021.1 1021.2 0.0
02/10:00am 10.7 6.2 8.5 86 1.1 WSW 22 28 12 15 1021.1 1021.2 0.0
02/09:30am 11.9 6.1 8.0 77 1.9 W 28 39 15 21 1020.6 1020.7 0.0
02/09:00am 11.2 5.8 7.9 80 1.6 WSW 26 35 14 19 1020.5 1020.6 4.0
02/08:30am 10.1 6.0 8.0 87 1.0 W 19 24 10 13 1020.3 1020.3 4.0
02/08:00am 8.4 5.9 6.4 87 0.9 WSW 9 13 5 7 1020.1 1020.1 4.0
02/07:30am 7.3 4.5 5.3 87 0.9 W 9 13 5 7 1019.9 1019.9 4.0
02/07:00am 7.7 5.1 6.2 90 0.7 WSW 9 11 5 6 1019.7 1019.7 4.0
02/06:30am 7.9 5.0 6.5 91 0.6 SSW 11 13 6 7 1019.5 1019.5 4.0
02/06:00am 7.6 4.7 6.4 92 0.5 WSW 11 13 6 7 1019.2 1019.2 4.0
02/05:30am 6.5 2.5 4.8 89 0.7 SW 15 20 8 11 1018.9 1018.9 4.0
02/05:00am 7.3 5.1 6.2 93 0.5 WSW 7 11 4 6 1018.7 1018.7 4.0
02/04:30am 7.7 5.9 7.0 95 0.3 N 6 7 3 4 1018.6 1018.6 4.0
02/04:00am 7.7 6.2 7.0 95 0.3 NW 4 7 2 4 1018.6 1018.6 4.0
02/03:30am 7.5 5.6 6.8 95 0.3 NW 6 9 3 5 1018.6 1018.6 4.0
02/03:00am 7.2 5.1 6.5 95 0.3 N 7 9 4 5 1018.8 1018.8 4.0
02/02:30am 6.9 3.9 6.2 95 0.3 N 11 11 6 6 1018.9 1018.9 3.8
02/02:00am 7.4 4.5 6.7 95 0.3 N 11 13 6 7 1019.0 1019.0 3.8
02/01:30am 7.2 4.3 6.3 94 0.4 N 11 13 6 7 1019.2 1019.2 3.8
02/01:00am 7.4 5.3 6.7 95 0.3 N 7 9 4 5 1019.3 1019.3 3.8
02/12:30am 7.2 4.7 6.5 95 0.3 N 9 9 5 5 1019.5 1019.5 3.8
02/12:00am 7.5 5.6 6.8 95 0.3 NNE 6 7 3 4 1019.3 1019.3 3.8
 
Date/Time
CST
Temp
°C
App
Temp
°C
Dew
Point
Rel
Hum
%
Delta-T
°C
Wind Press
QNH
hPa
Press
MSL
hPa
Rain
since 9 am
mm
Dir
 
Spd
km/h
Gust
km/h
Spd
kts
Gust
kts
01/11:30pm 7.6 5.5 6.7 94 0.4 N 7 9 4 5 1019.4 1019.4 3.8
01/11:00pm 7.9 5.9 7.0 94 0.4 ENE 7 9 4 5 1019.2 1019.2 3.8
01/10:30pm 8.0 6.2 7.1 94 0.4 SE 6 9 3 5 1019.6 1019.6 3.8
01/10:00pm 8.1 6.3 7.2 94 0.4 S 6 9 3 5 1019.5 1019.5 3.8
01/09:30pm 8.0 7.3 6.9 93 0.5 CALM 0 0 0 0 1019.1 1019.1 3.8
01/09:00pm 8.1 5.7 7.0 93 0.5 W 9 9 5 5 1019.0 1019.0 3.8
01/08:30pm 8.1 5.7 6.9 92 0.6 NE 9 11 5 6 1018.4 1018.4 3.8
01/08:00pm 8.2 6.4 7.0 92 0.6 ENE 6 15 3 8 1018.3 1018.3 3.6
01/07:30pm 8.6 6.3 7.4 92 0.6 NE 9 11 5 6 1017.8 1017.8 2.6
01/07:00pm 8.8 6.1 7.4 91 0.7 ENE 11 13 6 7 1017.9 1017.9 2.0
01/06:30pm 8.9 6.2 7.5 91 0.7 E 11 15 6 8 1017.6 1017.6 1.6
01/06:00pm 9.1 6.8 7.5 90 0.8 SSW 9 9 5 5 1017.6 1017.6 1.2
01/05:30pm 9.6 7.3 7.4 86 1.0 S 9 11 5 6 1016.9 1016.9 1.2
01/05:00pm 9.7 7.8 7.6 87 1.0 SE 7 9 4 5 1016.6 1016.6 1.2
01/04:30pm 10.0 7.3 7.3 83 1.3 SE 11 15 6 8 1016.5 1016.5 1.2
01/04:00pm 10.3 6.1 7.4 82 1.4 S 19 24 10 13 1016.7 1016.7 1.2
01/03:30pm 10.8 7.1 8.0 83 1.4 S 17 20 9 11 1016.6 1016.6 1.2
01/03:00pm 10.7 8.1 7.8 82 1.4 SSE 11 15 6 8 1016.3 1016.3 1.2
01/02:30pm 10.8 6.3 6.9 77 1.8 E 20 30 11 16 1015.5 1015.5 1.2
01/02:00pm 11.0 8.1 8.2 83 1.4 E 13 17 7 9 1016.4 1016.4 1.2
01/01:30pm 10.5 6.1 7.6 82 1.4 ESE 20 26 11 14 1015.4 1015.4 1.2
01/01:00pm 10.6 6.6 8.2 85 1.2 SSE 19 26 10 14 1016.7 1016.7 1.2
01/12:30pm 10.7 8.0 8.8 88 0.9 SSW 13 19 7 10 1018.0 1018.0 1.0
01/12:00pm 10.8 8.0 8.6 86 1.1 S 13 19 7 10 1018.7 1018.7 0.6
01/11:30am 10.9 7.9 9.3 90 0.8 SSE 15 20 8 11 1017.4 1017.4 0.6
01/11:00am 10.7 8.0 9.1 90 0.8 WSW 13 15 7 8 1019.2 1019.2 0.4
01/10:57am 10.7 8.0 9.1 90 0.8 SW 13 15 7 8 1019.4 1019.4 0.2
01/10:30am 10.6 8.0 9.2 91 0.7 SSE 13 17 7 9 1017.4 1017.4 0.2
01/10:00am 10.2 6.8 9.0 92 0.6 ESE 17 22 9 12 1016.3 1016.3 0.2
01/09:30am 10.3 7.7 9.2 93 0.5 SSE 13 17 7 9 1017.2 1017.2 0.0
01/09:00am 10.1 7.4 9.0 93 0.5 SSE 13 20 7 11 1017.2 1017.2 4.0
01/08:30am 10.1 7.0 9.0 93 0.5 S 15 20 8 11 1017.3 1017.3 3.4
01/08:24am 10.2 6.8 9.1 93 0.5 S 17 20 9 11 1017.4 1017.4 3.4
01/08:00am 10.1 6.3 9.2 94 0.4 SSE 19 24 10 13 1015.4 1015.4 3.4
01/07:30am 10.1 6.7 9.3 95 0.4 SSE 17 24 9 13 1016.0 1016.0 3.0
01/07:00am 10.5 7.2 9.6 94 0.5 S 17 20 9 11 1015.7 1015.7 2.2
01/06:30am 10.8 9.7 9.9 94 0.5 WSW 6 11 3 6 1015.4 1015.4 1.4
01/06:00am 10.9 10.1 9.8 93 0.6 SSW 4 6 2 3 1014.5 1014.5 1.2
01/05:30am 10.9 9.8 9.8 93 0.6 SSW 6 7 3 4 1014.1 1014.1 1.2
01/05:00am 11.0 9.3 9.9 93 0.6 SSW 9 13 5 7 1013.8 1013.8 1.2
01/04:30am 11.0 8.1 9.8 92 0.6 SSW 15 17 8 9 1013.6 1013.6 1.2
01/04:00am 11.0 7.2 9.8 92 0.6 SSW 20 28 11 15 1013.3 1013.3 1.2
01/03:51am 11.0 5.7 9.9 93 0.6 SSW 28 46 15 25 1013.0 1013.0 1.2
01/03:30am 13.1 8.9 12.5 96 0.3 WNW 26 32 14 17 1012.5 1012.5 1.2
01/03:00am 13.1 8.9 12.3 95 0.4 NW 26 32 14 17 1012.4 1012.4 1.2
01/02:30am 12.9 8.2 12.0 94 0.5 NNW 28 35 15 19 1012.7 1012.7 1.2
01/02:00am 13.0 8.7 11.9 93 0.6 NNW 26 30 14 16 1012.8 1012.8 1.0
01/01:30am 13.0 9.4 11.7 92 0.7 NNW 22 28 12 15 1012.9 1012.9 0.2
01/01:00am 13.2 9.1 11.6 90 0.9 NNW 24 28 13 15 1012.8 1012.8 0.0
01/12:30am 13.2 8.8 11.6 90 0.9 NNW 26 35 14 19 1012.7 1012.7 0.0
01/12:00am 13.3 8.5 11.7 90 0.9 NNW 28 33 15 18 1013.0 1013.0 0.0
 
Date/Time
CST
Temp
°C
App
Temp
°C
Dew
Point
Rel
Hum
%
Delta-T
°C
Wind Press
QNH
hPa
Press
MSL
hPa
Rain
since 9 am
mm
Dir
 
Spd
km/h
Gust
km/h
Spd
kts
Gust
kts
31/11:30pm 13.2 7.9 11.4 89 1.0 NNW 30 37 16 20 1013.1 1013.1 0.0
31/11:00pm 13.0 8.0 11.1 88 1.0 NNW 28 35 15 19 1013.3 1013.3 0.0
31/10:30pm 12.8 8.2 11.2 90 0.8 NNW 26 32 14 17 1013.5 1013.5 0.0
31/10:00pm 13.0 9.1 10.7 86 1.2 NNW 22 28 12 15 1013.7 1013.7 0.0
31/09:30pm 12.9 8.6 10.6 86 1.2 NNW 24 30 13 16 1013.7 1013.7 0.0
31/09:00pm 13.1 8.2 10.1 82 1.5 N 26 32 14 17 1013.7 1013.7 0.0
31/08:30pm 12.5 9.6 9.7 83 1.4 N 15 19 8 10 1014.2 1014.2 0.0

Other Formats:

Comma delimited format used in spreadsheet applications
http://www.bom.gov.au/fwo/IDS60801/IDS60801.95659.axf

JavaScript Object Notation format (JSON) in row-major order
http://www.bom.gov.au/fwo/IDS60801/IDS60801.95659.json